Time;durP1;ratioP1;P1;durP2;ratioP2;P2;SDS_P1;SDS_P2;PMS_P1;PMS_P2;Temp;Humidity;BMP_temperature;BMP_pressure;BME280_temperature;BME280_humidity;BME280_pressure;Samples;Min_cycle;Max_cycle;Signal;HPM_P1;HPM_P2
2022/11/14 00:00:30;;;;;;;12.40;7.28;;;9.70;99.90;;;8.84;100.00;100956.69;4234968;28;20031;-83
2022/11/14 00:02:31;;;;;;;8.32;6.35;;;9.70;99.90;;;8.75;100.00;100924.13;4234952;28;20030;-83
2022/11/14 00:04:32;;;;;;;12.55;6.75;;;9.70;99.90;;;8.79;100.00;100933.41;4233613;28;20027;-83
2022/11/14 00:06:32;;;;;;;11.10;6.63;;;9.70;99.90;;;8.85;100.00;100943.38;4233768;28;20039;-83
2022/11/14 00:08:34;;;;;;;10.82;6.47;;;9.70;99.90;;;8.84;100.00;100936.44;4234889;28;20028;-83
2022/11/14 00:10:35;;;;;;;11.15;6.95;;;9.70;99.90;;;8.79;100.00;100935.22;4233404;28;20023;-83
2022/11/14 00:12:36;;;;;;;10.68;6.60;;;9.70;99.90;;;8.76;100.00;100938.97;4234753;28;20026;-83
2022/11/14 00:14:37;;;;;;;15.80;6.50;;;9.60;99.90;;;8.73;100.00;100930.50;4237714;28;20023;-83
2022/11/14 00:16:38;;;;;;;10.90;6.20;;;9.60;99.90;;;8.65;100.00;100931.22;4236980;28;20023;-83
2022/11/14 00:18:39;;;;;;;10.48;6.72;;;9.60;99.90;;;8.62;100.00;100920.97;4237785;28;20057;-83
2022/11/14 00:20:40;;;;;;;12.85;7.45;;;9.50;99.90;;;8.60;100.00;100928.16;4236470;28;20498;-83
2022/11/14 00:22:41;;;;;;;13.20;6.72;;;9.50;99.90;;;8.59;100.00;100923.88;4236766;28;20036;-83
2022/11/14 00:24:41;;;;;;;17.02;7.57;;;9.50;99.90;;;8.58;100.00;100924.84;4237765;28;20031;-83
2022/11/14 00:26:42;;;;;;;14.13;7.20;;;9.40;99.90;;;8.52;100.00;100914.06;4237658;28;20024;-83
2022/11/14 00:28:43;;;;;;;13.20;6.80;;;9.40;99.90;;;8.51;100.00;100912.41;4237718;28;20032;-83
2022/11/14 00:30:48;;;;;;;12.65;6.63;;;9.40;99.90;;;8.53;100.00;100920.97;4236761;28;20106;-83
2022/11/14 00:32:49;;;;;;;12.10;6.43;;;9.40;99.90;;;8.45;100.00;100908.53;4236518;28;20072;-83
2022/11/14 00:34:50;;;;;;;8.57;5.55;;;9.40;99.90;;;8.42;100.00;100910.59;4237781;28;20036;-83
2022/11/14 00:36:51;;;;;;;11.75;6.47;;;9.30;99.90;;;8.36;100.00;100904.09;4237510;28;20027;-83
2022/11/14 00:38:53;;;;;;;14.00;7.22;;;9.30;99.90;;;8.27;100.00;100889.97;4237687;28;20478;-83
2022/11/14 00:40:54;;;;;;;13.73;7.05;;;9.20;99.90;;;8.25;100.00;100888.41;4236735;28;20047;-83
2022/11/14 00:42:55;;;;;;;12.35;7.22;;;9.10;99.90;;;8.22;100.00;100891.31;4236671;28;20028;-83
2022/11/14 00:44:56;;;;;;;10.98;5.78;;;9.10;99.90;;;8.21;100.00;100893.09;4237415;28;20031;-83
2022/11/14 00:46:57;;;;;;;20.23;8.15;;;9.10;99.90;;;8.15;100.00;100879.72;4236367;28;20031;-83
2022/11/14 00:48:58;;;;;;;12.32;7.15;;;9.10;99.90;;;8.11;100.00;100884.41;4237466;28;20032;-83
2022/11/14 00:50:58;;;;;;;11.30;6.55;;;9.10;99.90;;;8.10;100.00;100881.91;4236232;28;20472;-83
2022/11/14 00:52:59;;;;;;;13.10;6.45;;;9.00;99.90;;;8.01;100.00;100866.97;4235919;28;20019;-83
2022/11/14 00:55:00;;;;;;;14.82;6.82;;;8.90;99.90;;;8.02;100.00;100876.50;4236399;28;20024;-83
2022/11/14 00:57:01;;;;;;;11.40;6.60;;;8.90;99.90;;;7.94;100.00;100866.69;4253040;27;20052;-83
2022/11/14 00:59:02;;;;;;;10.13;6.38;;;8.90;99.90;;;7.97;100.00;100876.09;4235761;28;20051;-83
2022/11/14 01:01:03;;;;;;;9.20;6.38;;;8.80;99.90;;;7.92;100.00;100871.22;4235825;28;20426;-83
2022/11/14 01:03:04;;;;;;;11.23;6.95;;;8.80;99.90;;;7.85;100.00;100861.41;4235918;28;20027;-83
2022/11/14 01:05:05;;;;;;;12.05;6.78;;;8.80;99.90;;;7.79;100.00;100849.66;4237245;27;20020;-83
2022/11/14 01:07:06;;;;;;;10.13;6.82;;;8.70;99.90;;;7.81;100.00;100845.09;4237058;28;20027;-83
2022/11/14 01:09:07;;;;;;;11.15;7.15;;;8.70;99.90;;;7.84;100.00;100842.19;4235701;28;20055;-83
2022/11/14 01:11:20;;;;;;;13.98;7.85;;;8.70;99.90;;;7.85;100.00;100837.78;4235907;28;20076;-83
2022/11/14 01:13:21;;;;;;;13.95;8.65;;;8.70;99.90;;;7.83;100.00;100845.78;4261412;27;20094;-82
2022/11/14 01:15:22;;;;;;;10.40;6.80;;;8.70;99.90;;;7.77;100.00;100834.03;4230806;28;20028;-82
2022/11/14 01:17:23;;;;;;;13.88;7.85;;;8.70;99.90;;;7.80;100.00;100841.63;4235676;28;20543;-82
2022/11/14 01:19:24;;;;;;;16.98;7.50;;;8.70;99.90;;;7.76;100.00;100832.34;4234501;28;20084;-82
2022/11/14 01:21:25;;;;;;;14.23;7.43;;;8.70;99.90;;;7.76;100.00;100832.34;4235380;28;20544;-83
2022/11/14 01:23:25;;;;;;;12.35;7.55;;;8.70;99.90;;;7.76;100.00;100827.09;4237274;28;20051;-82
2022/11/14 01:25:26;;;;;;;12.27;7.28;;;8.60;99.90;;;7.76;100.00;100832.34;4235462;28;20031;-82
2022/11/14 01:27:30;;;;;;;17.23;9.13;;;8.60;99.90;;;7.73;100.00;100822.16;4236909;28;20030;-82
2022/11/14 01:29:31;;;;;;;12.00;7.43;;;8.60;99.90;;;7.72;100.00;100820.50;4235823;28;20043;-82
2022/11/14 01:31:32;;;;;;;14.27;9.25;;;8.60;99.90;;;7.72;100.00;100820.50;4236717;28;20429;-82
2022/11/14 01:33:33;;;;;;;12.77;8.40;;;8.60;99.90;;;7.77;100.00;100818.28;4236670;28;20031;-83
2022/11/14 01:35:37;;;;;;;13.82;7.57;;;8.60;99.90;;;7.74;100.00;100801.97;4236815;28;20023;-83
2022/11/14 01:37:37;;;;;;;12.32;8.38;;;8.60;99.90;;;7.76;100.00;100808.72;4236640;27;20088;-83
2022/11/14 01:39:38;;;;;;;13.90;8.48;;;8.60;99.90;;;7.74;100.00;100807.22;4235122;28;20027;-83
2022/11/14 01:41:39;;;;;;;15.30;8.60;;;8.70;99.90;;;7.67;100.00;100801.69;4236721;28;20035;-83
2022/11/14 01:43:41;;;;;;;14.77;8.70;;;8.60;99.90;;;7.67;100.00;100799.06;4235476;28;20032;-83
2022/11/14 01:46:15;;;;;;;11.85;8.20;;;8.60;99.90;;;7.64;100.00;100795.88;4235424;28;20525;-83
2022/11/14 01:48:41;;;;;;;10.23;7.25;;;8.50;99.90;;;7.61;100.00;100796.16;4235213;28;20028;-83
2022/11/14 01:50:42;;;;;;;14.60;8.40;;;8.50;99.90;;;7.53;100.00;100799.44;4235134;28;20043;-82
2022/11/14 01:52:44;;;;;;;13.30;7.53;;;8.50;99.90;;;7.50;100.00;100794.47;4235319;28;20024;-82
2022/11/14 01:54:54;;;;;;;12.93;8.00;;;8.40;99.90;;;7.47;100.00;100788.63;4234664;28;20031;-82
2022/11/14 01:57:01;;;;;;;12.30;8.15;;;8.40;99.90;;;7.47;100.00;100797.34;4218621;28;20115;-82
2022/11/14 01:59:12;;;;;;;12.40;8.77;;;8.40;99.90;;;7.44;100.00;100792.38;4235170;28;20442;-82
2022/11/14 02:01:13;;;;;;;14.52;7.90;;;8.40;99.90;;;7.42;100.00;100781.19;4235024;28;20019;-83
2022/11/14 02:03:16;;;;;;;12.23;8.27;;;8.30;99.90;;;7.43;100.00;100777.59;4235108;28;20489;-83
2022/11/14 02:05:17;;;;;;;11.60;8.20;;;8.30;99.90;;;7.45;100.00;100782.72;4234945;28;20026;-83
2022/11/14 02:07:18;;;;;;;12.00;7.72;;;8.30;99.90;;;7.46;100.00;100779.97;4217943;28;20138;-82
2022/11/14 02:09:19;;;;;;;13.70;8.52;;;8.30;99.90;;;7.44;100.00;100775.78;4235883;27;20059;-83
2022/11/14 02:11:20;;;;;;;13.23;8.00;;;8.30;99.90;;;7.44;100.00;100779.25;4217884;28;20028;-83
2022/11/14 02:13:21;;;;;;;17.85;8.15;;;8.30;99.90;;;7.43;100.00;100771.53;4226345;28;20019;-83
2022/11/14 02:15:23;;;;;;;11.85;8.48;;;8.30;99.90;;;7.42;100.00;100775.94;4234850;28;20387;-83
2022/11/14 02:17:25;;;;;;;15.60;7.63;;;8.30;99.90;;;7.45;100.00;100773.03;4236064;28;20110;-82
2022/11/14 02:19:42;;;;;;;11.75;7.95;;;8.40;99.90;;;7.46;100.00;100772.09;4217444;28;20028;-83
2022/11/14 02:21:43;;;;;;;13.73;8.25;;;8.30;99.90;;;7.44;100.00;100760.03;4236082;28;20505;-83
2022/11/14 02:23:44;;;;;;;14.02;9.60;;;8.30;99.90;;;7.43;100.00;100763.66;4235855;28;20027;-83
2022/11/14 02:25:45;;;;;;;15.20;8.75;;;8.30;99.90;;;7.46;100.00;100753.72;4235687;28;20600;-82
2022/11/14 02:27:46;;;;;;;15.90;10.00;;;8.30;99.90;;;7.49;100.00;100758.69;4234843;28;20032;-83
2022/11/14 02:29:47;;;;;;;12.40;8.43;;;8.40;99.90;;;7.52;100.00;100758.44;4235914;28;20034;-83
2022/11/14 02:31:48;;;;;;;19.77;9.98;;;8.40;99.90;;;7.52;100.00;100755.81;4234748;28;20024;-83
2022/11/14 02:33:49;;;;;;;13.35;7.90;;;8.40;99.90;;;7.53;100.00;100756.59;4234493;28;20422;-83
2022/11/14 02:35:49;;;;;;;12.25;7.82;;;8.40;99.90;;;7.51;100.00;100753.28;4235531;28;20034;-83
2022/11/14 02:37:50;;;;;;;13.52;8.38;;;8.40;99.90;;;7.48;100.00;100748.31;4234467;28;20016;-83
2022/11/14 02:39:51;;;;;;;12.85;8.57;;;8.40;99.90;;;7.44;100.00;100737.25;4234287;28;20034;-83
2022/11/14 02:41:52;;;;;;;10.18;6.97;;;8.40;99.90;;;7.52;100.00;100747.09;4235525;28;20031;-83
2022/11/14 02:43:53;;;;;;;11.00;7.55;;;8.50;99.90;;;7.57;100.00;100750.97;4234689;28;20028;-82
2022/11/14 02:45:54;;;;;;;11.00;7.88;;;8.50;99.90;;;7.54;100.00;100746.00;4234225;28;20398;-82
2022/11/14 02:47:55;;;;;;;10.45;7.95;;;8.50;99.90;;;7.61;100.00;100748.91;4235589;28;20410;-82
2022/11/14 02:49:56;;;;;;;9.80;6.60;;;8.50;99.90;;;7.64;100.00;100744.22;4235467;28;20018;-83
2022/11/14 02:51:57;;;;;;;14.30;8.02;;;8.50;99.90;;;7.62;100.00;100740.88;4235632;28;20397;-83
2022/11/14 02:53:58;;;;;;;12.25;8.18;;;8.50;99.90;;;7.65;100.00;100745.84;4234179;28;20118;-82
2022/11/14 02:55:58;;;;;;;16.23;9.75;;;8.50;99.90;;;7.61;100.00;100738.41;4234201;28;20110;-82
2022/11/14 02:57:59;;;;;;;9.35;7.10;;;8.50;99.90;;;7.63;100.00;100746.97;4234202;28;20035;-82
2022/11/14 03:00:00;;;;;;;13.57;8.18;;;8.50;99.90;;;7.60;100.00;100745.44;4235568;28;20039;-82
2022/11/14 03:02:01;;;;;;;17.33;8.50;;;8.50;99.90;;;7.60;100.00;100748.06;4235460;28;20047;-82
2022/11/14 03:04:03;;;;;;;13.57;8.43;;;8.50;99.90;;;7.58;100.00;100744.75;4235458;28;20082;-82
2022/11/14 03:06:04;;;;;;;13.57;8.40;;;8.50;99.90;;;7.60;100.00;100736.72;4234012;28;20020;-82
2022/11/14 03:08:05;;;;;;;12.25;7.82;;;8.50;99.90;;;7.63;100.00;100741.72;4234195;28;20039;-82
2022/11/14 03:10:08;;;;;;;15.38;8.35;;;8.50;99.90;;;7.68;100.00;100734.25;4234050;28;20023;-82
2022/11/14 03:12:09;;;;;;;14.50;9.10;;;8.50;99.90;;;7.70;100.00;100727.91;4234047;28;20031;-82
2022/11/14 03:14:10;;;;;;;12.88;8.38;;;8.60;99.90;;;7.77;100.00;100738.66;4233927;28;20505;-82
2022/11/14 03:16:13;;;;;;;12.02;8.27;;;8.60;99.90;;;7.82;100.00;100730.38;4222571;28;20031;-82
2022/11/14 03:18:13;;;;;;;15.02;8.68;;;8.70;99.90;;;7.92;100.00;100731.19;4233485;28;20464;-83
2022/11/14 03:20:15;;;;;;;10.45;6.97;;;8.80;99.90;;;7.96;100.00;100733.41;4234716;28;20043;-82
2022/11/14 03:22:15;;;;;;;12.77;7.20;;;8.90;99.90;;;8.02;100.00;100724.97;4233987;28;20081;-83
2022/11/14 03:24:16;;;;;;;14.82;8.52;;;8.90;99.90;;;8.01;100.00;100720.69;4235097;28;20039;-83
2022/11/14 03:26:17;;;;;;;10.30;7.28;;;8.90;99.90;;;8.03;100.00;100731.91;4233923;28;20176;-83
2022/11/14 03:28:18;;;;;;;11.40;6.97;;;8.90;99.90;;;8.00;100.00;100728.72;4235455;28;20028;-83
2022/11/14 03:30:19;;;;;;;15.00;8.80;;;8.90;99.90;;;7.98;100.00;100725.38;4235113;28;20065;-83
2022/11/14 03:32:20;;;;;;;10.25;7.28;;;8.90;99.90;;;7.99;100.00;100724.44;4235427;28;20023;-83
2022/11/14 03:34:21;;;;;;;8.63;6.63;;;8.90;99.90;;;7.97;100.00;100716.72;4233909;28;20026;-83
2022/11/14 03:36:22;;;;;;;10.00;7.00;;;8.90;99.90;;;8.01;100.00;100725.09;4234019;28;20514;-83
2022/11/14 03:38:23;;;;;;;10.00;6.78;;;8.90;99.90;;;7.97;100.00;100710.63;4235075;28;20024;-83
2022/11/14 03:40:24;;;;;;;14.52;7.43;;;8.90;99.90;;;8.01;100.00;100710.19;4233853;28;20038;-83
2022/11/14 03:42:25;;;;;;;14.85;7.72;;;8.90;99.90;;;8.02;100.00;100700.50;4235169;28;20027;-83
2022/11/14 03:44:26;;;;;;;10.30;6.88;;;9.00;99.90;;;8.05;100.00;100700.22;4235293;28;20117;-83
2022/11/14 03:46:26;;;;;;;9.75;6.70;;;9.00;99.90;;;8.10;100.00;100695.38;4233839;28;20426;-83
2022/11/14 03:48:29;;;;;;;11.60;6.63;;;9.00;99.90;;;8.12;100.00;100702.13;4235841;28;20024;-83
2022/11/14 03:50:30;;;;;;;11.95;6.72;;;9.00;99.90;;;8.14;100.00;100707.25;4238447;28;20012;-82
2022/11/14 03:52:31;;;;;;;11.85;7.07;;;9.00;99.90;;;7.95;100.00;100702.88;4237167;28;20035;-83
2022/11/14 03:54:32;;;;;;;8.80;6.20;;;9.00;99.90;;;8.02;100.00;100717.09;4238073;28;20498;-83
2022/11/14 03:56:32;;;;;;;10.80;7.05;;;8.90;99.90;;;8.01;100.00;100707.56;4238163;28;20032;-83
2022/11/14 03:58:33;;;;;;;12.82;7.30;;;9.00;99.90;;;8.03;100.00;100702.19;4238308;28;20032;-83
2022/11/14 04:00:34;;;;;;;12.65;7.13;;;9.00;99.90;;;8.09;100.00;100699.00;4238266;28;20080;-83
2022/11/14 04:02:35;;;;;;;10.85;7.82;;;9.00;99.90;;;8.19;100.00;100705.03;4236979;28;20023;-83
2022/11/14 04:04:36;;;;;;;16.20;8.35;;;9.10;99.90;;;8.17;100.00;100689.44;4238434;28;20032;-83
2022/11/14 04:06:37;;;;;;;13.10;8.27;;;9.10;99.90;;;8.26;100.00;100698.25;4238130;28;20030;-83
2022/11/14 04:08:40;;;;;;;10.35;6.72;;;9.10;99.90;;;8.24;100.00;100692.31;4237844;28;20035;-83
2022/11/14 04:10:41;;;;;;;12.35;7.13;;;9.10;99.90;;;8.23;100.00;100688.03;4236948;28;20502;-83
2022/11/14 04:12:53;;;;;;;12.38;7.55;;;9.10;99.90;;;8.16;100.00;100681.66;4250220;27;20023;-83
2022/11/14 04:14:53;;;;;;;14.32;8.85;;;9.10;99.90;;;8.17;100.00;100689.44;4238028;28;20051;-82
2022/11/14 04:16:54;;;;;;;12.48;7.80;;;9.10;99.90;;;8.19;100.00;100684.00;4238008;28;20035;-83
2022/11/14 04:18:55;;;;;;;11.70;7.82;;;9.10;99.90;;;8.24;100.00;100679.19;4236619;28;20023;-82
2022/11/14 04:20:56;;;;;;;11.65;7.75;;;9.20;99.90;;;8.31;100.00;100678.50;4237612;28;20056;-82
2022/11/14 04:22:57;;;;;;;10.82;7.72;;;9.20;99.90;;;8.37;100.00;100684.13;4236737;28;20507;-82
2022/11/14 04:24:58;;;;;;;15.77;7.78;;;9.20;99.90;;;8.42;100.00;100692.44;4237742;27;20023;-83
2022/11/14 04:26:58;;;;;;;12.60;7.82;;;9.30;99.90;;;8.43;100.00;100688.81;4219480;28;20020;-82
2022/11/14 04:28:59;;;;;;;10.02;7.85;;;9.30;99.90;;;8.44;100.00;100691.31;4236549;28;20502;-83
2022/11/14 04:31:00;;;;;;;13.55;8.20;;;9.40;99.90;;;8.48;100.00;100687.44;4236686;28;20079;-82
2022/11/14 04:33:01;;;;;;;11.32;7.78;;;9.40;99.90;;;8.50;100.00;100680.22;4236528;28;20030;-82
2022/11/14 04:35:02;;;;;;;12.05;7.72;;;9.40;99.90;;;8.57;100.00;100680.50;4236687;28;20047;-82
2022/11/14 04:37:03;;;;;;;11.30;7.32;;;9.40;99.90;;;8.60;100.00;100675.75;4237495;28;20059;-82
2022/11/14 04:39:04;;;;;;;9.93;6.82;;;9.50;99.90;;;8.64;100.00;100677.13;4237601;27;20031;-82
2022/11/14 04:41:05;;;;;;;14.15;7.00;;;9.50;99.90;;;8.66;100.00;100674.38;4236417;28;20105;-83
2022/11/14 04:43:06;;;;;;;13.05;7.07;;;9.50;99.90;;;8.63;100.00;100685.97;4236215;28;20096;-82
2022/11/14 04:45:08;;;;;;;10.75;7.07;;;9.50;99.90;;;8.62;100.00;100684.34;4237394;28;20055;-82
2022/11/14 04:47:09;;;;;;;9.27;6.57;;;9.60;99.90;;;8.67;100.00;100674.19;4237600;28;20391;-83
2022/11/14 04:49:09;;;;;;;12.80;8.10;;;9.60;99.90;;;8.63;100.00;100677.28;4237481;28;20043;-82
2022/11/14 04:51:10;;;;;;;12.82;7.70;;;9.60;99.90;;;8.69;100.00;100693.28;4237499;28;20024;-83
2022/11/14 04:53:11;;;;;;;10.65;8.13;;;9.60;99.90;;;8.75;100.00;100694.53;4219091;28;20020;-83
2022/11/14 04:55:12;;;;;;;11.07;7.10;;;9.60;99.90;;;8.73;100.00;100685.94;4237280;28;20023;-83
2022/11/14 04:57:13;;;;;;;8.55;6.35;;;9.70;99.90;;;8.79;100.00;100701.13;4237391;28;20028;-83
2022/11/14 04:59:14;;;;;;;10.90;8.10;;;9.70;99.90;;;8.80;100.00;100702.81;4237123;27;20019;-83
2022/11/14 05:01:15;;;;;;;15.13;8.27;;;9.70;99.90;;;8.87;100.00;100715.22;4235931;28;20030;-82
2022/11/14 05:03:16;;;;;;;13.40;8.63;;;9.70;99.90;;;8.90;100.00;100720.19;4236044;28;20027;-83
2022/11/14 05:05:17;;;;;;;11.98;7.78;;;9.80;99.90;;;8.94;100.00;100712.00;4237242;28;20028;-83
2022/11/14 05:07:18;;;;;;;10.70;7.82;;;9.80;99.90;;;9.01;100.00;100715.72;4235911;28;20077;-83
2022/11/14 05:09:19;;;;;;;13.05;8.70;;;9.90;99.90;;;9.07;100.00;100715.13;4252660;27;20547;-83
2022/11/14 05:11:20;;;;;;;12.15;8.20;;;9.90;99.90;;;9.08;100.00;100709.69;4236925;28;20031;-83
2022/11/14 05:13:21;;;;;;;13.18;8.10;;;10.00;99.90;;;9.15;100.00;100720.47;4235501;28;20087;-82
2022/11/14 05:15:22;;;;;;;10.35;6.50;;;10.00;99.90;;;9.15;100.00;100712.56;4235741;28;20028;-83
2022/11/14 05:17:23;;;;;;;10.27;6.57;;;10.00;99.90;;;9.16;100.00;100717.72;4235578;28;20027;-83
2022/11/14 05:19:24;;;;;;;11.73;7.22;;;10.10;99.90;;;9.17;100.00;100715.91;4235368;28;20031;-82
2022/11/14 05:21:25;;;;;;;9.07;6.90;;;10.00;99.90;;;9.16;100.00;100717.72;4236980;28;20039;-82
2022/11/14 05:23:26;;;;;;;8.85;6.13;;;10.00;99.90;;;9.14;100.00;100714.38;4236787;27;20122;-83
2022/11/14 05:25:27;;;;;;;8.63;5.75;;;10.00;99.90;;;9.13;100.00;100719.81;4236801;28;20032;-83
2022/11/14 05:27:28;;;;;;;8.70;6.43;;;10.00;99.90;;;9.11;100.00;100717.31;4236847;28;20375;-82
2022/11/14 05:29:29;;;;;;;12.55;6.68;;;10.00;99.90;;;9.10;100.00;100715.66;4236819;28;20062;-83
2022/11/14 05:31:30;;;;;;;9.45;6.72;;;10.00;99.90;;;9.16;100.00;100722.13;4235751;28;20020;-83
2022/11/14 05:33:32;;;;;;;11.10;7.13;;;10.00;99.90;;;9.18;100.00;100718.38;4236834;28;20026;-83
2022/11/14 05:35:33;;;;;;;10.48;6.38;;;10.10;99.90;;;9.15;100.00;100712.56;4235722;28;20030;-82
2022/11/14 05:37:34;;;;;;;10.13;6.70;;;10.10;99.90;;;9.21;100.00;100715.44;4236892;28;20031;-82
2022/11/14 05:39:35;;;;;;;10.13;7.22;;;10.10;99.90;;;9.21;100.00;100704.94;4236654;28;20031;-82
2022/11/14 05:41:36;;;;;;;9.35;6.60;;;10.10;99.90;;;9.28;100.00;100705.16;4235498;28;20072;-83
2022/11/14 05:43:37;;;;;;;12.82;7.55;;;10.20;99.90;;;9.30;100.00;100703.22;4236442;28;20035;-83
2022/11/14 05:45:38;;;;;;;8.10;5.88;;;10.20;99.90;;;9.27;100.00;100706.13;4236451;28;20038;-83
2022/11/14 05:47:39;;;;;;;9.07;6.18;;;10.20;99.90;;;9.22;100.00;100687.34;4218227;28;20020;-82
2022/11/14 05:49:40;;;;;;;10.65;7.00;;;10.20;99.90;;;9.26;100.00;100699.19;4236158;28;20028;-83
2022/11/14 05:51:40;;;;;;;12.40;7.97;;;10.10;99.90;;;9.27;100.00;100706.13;4236345;28;20027;-82
2022/11/14 05:53:41;;;;;;;12.25;8.18;;;10.10;99.90;;;9.24;100.00;100699.38;4235119;28;20109;-82
2022/11/14 05:55:42;;;;;;;14.23;8.93;;;10.20;99.90;;;9.23;100.00;100699.50;4236509;28;20032;-83
2022/11/14 05:57:43;;;;;;;11.93;7.45;;;10.20;99.90;;;9.30;100.00;100708.47;4236325;28;20084;-83
2022/11/14 05:59:44;;;;;;;10.77;6.80;;;10.20;99.90;;;9.27;100.00;100701.69;4236199;28;20034;-83
2022/11/14 06:01:45;;;;;;;13.30;6.97;;;10.20;99.90;;;9.31;100.00;100710.97;4235167;28;20031;-82
2022/11/14 06:03:47;;;;;;;10.00;6.53;;;10.20;99.90;;;9.31;100.00;100708.34;4236212;28;20023;-83
2022/11/14 06:05:48;;;;;;;9.95;6.78;;;10.20;99.90;;;9.34;100.00;100713.31;4234946;28;20027;-83
2022/11/14 06:07:55;;;;;;;11.15;7.35;;;10.20;99.90;;;9.38;100.00;100706.75;4217808;28;20054;-82
2022/11/14 06:09:56;;;;;;;10.70;6.25;;;10.20;99.90;;;9.38;100.00;100711.19;4223794;28;20031;-82
2022/11/14 06:11:57;;;;;;;9.40;6.35;;;10.30;99.90;;;9.41;100.00;100716.97;4227877;28;20024;-82
2022/11/14 06:13:58;;;;;;;9.50;6.85;;;10.30;99.90;;;9.38;100.00;100709.38;4256646;27;20098;-82
2022/11/14 06:16:01;;;;;;;15.07;8.07;;;10.30;99.90;;;9.46;100.00;100698.13;4234709;28;20053;-82
2022/11/14 06:18:02;;;;;;;11.48;7.65;;;10.30;99.90;;;9.52;100.00;100705.41;4234757;28;20027;-82
2022/11/14 06:20:03;;;;;;;13.57;8.43;;;10.40;99.90;;;9.53;100.00;100709.69;4217871;28;20044;-82
2022/11/14 06:22:04;;;;;;;13.63;8.35;;;10.40;99.90;;;9.55;100.00;100709.56;4235978;28;20540;-82
2022/11/14 06:24:06;;;;;;;10.18;6.90;;;10.40;99.90;;;9.54;100.00;100708.72;4235585;28;20031;-82
2022/11/14 06:26:19;;;;;;;11.32;7.55;;;10.40;99.90;;;9.52;100.00;100710.69;4234640;28;20059;-82
2022/11/14 06:28:20;;;;;;;12.50;6.97;;;10.40;99.90;;;9.49;100.00;100699.63;4236247;28;20107;-81
2022/11/14 06:30:21;;;;;;;10.95;7.10;;;10.40;99.90;;;9.49;100.00;100710.16;4234280;28;20636;-81
2022/11/14 06:32:22;;;;;;;11.65;7.65;;;10.40;99.90;;;9.48;100.00;100704.06;4235616;28;20027;-81
2022/11/14 06:34:23;;;;;;;9.77;7.03;;;10.40;99.90;;;9.60;100.00;100717.81;4234642;28;20148;-82
2022/11/14 06:36:23;;;;;;;12.75;7.47;;;10.50;99.90;;;9.62;100.00;100710.59;4235825;28;20031;-82
2022/11/14 06:38:25;;;;;;;11.32;7.50;;;10.50;99.90;;;9.64;100.00;100708.66;4235516;28;20042;-82
2022/11/14 06:40:25;;;;;;;9.88;6.35;;;10.50;99.90;;;9.69;100.00;100717.75;4234612;28;20498;-82
2022/11/14 06:42:26;;;;;;;10.00;6.38;;;10.60;99.90;;;9.65;100.00;100705.03;4234285;28;20028;-82
2022/11/14 06:44:27;;;;;;;14.05;7.95;;;10.50;99.90;;;9.66;100.00;100704.88;4234224;28;20028;-82
2022/11/14 06:46:28;;;;;;;11.57;7.15;;;10.60;99.90;;;9.72;100.00;100721.88;4233982;28;20483;-82
2022/11/14 06:48:30;;;;;;;8.35;5.85;;;10.60;99.90;;;9.72;100.00;100719.25;4235403;28;20031;-82
2022/11/14 06:50:31;;;;;;;11.73;8.02;;;10.60;99.90;;;9.74;100.00;100719.91;4234425;28;20024;-81
2022/11/14 06:52:31;;;;;;;7.95;5.55;;;10.60;99.90;;;9.75;100.00;100737.38;4235634;28;20027;-82
2022/11/14 06:54:32;;;;;;;9.18;5.45;;;10.60;99.90;;;9.72;100.00;100728.00;4233529;28;20402;-82
2022/11/14 06:56:34;;;;;;;9.73;6.35;;;10.60;99.90;;;9.76;100.00;100731.97;4233844;28;20035;-82
2022/11/14 06:58:39;;;;;;;13.68;7.82;;;10.60;99.90;;;9.74;100.00;100726.03;4235579;28;20024;-82
2022/11/14 07:00:40;;;;;;;15.13;7.00;;;10.70;99.90;;;9.78;100.00;100723.91;4234325;28;20038;-82
2022/11/14 07:02:45;;;;;;;9.55;6.57;;;10.70;99.90;;;9.84;100.00;100732.03;4234296;28;20020;-82
2022/11/14 07:04:46;;;;;;;8.57;5.97;;;10.70;99.90;;;9.83;100.00;100735.66;4235526;28;20027;-82
2022/11/14 07:06:47;;;;;;;11.93;5.78;;;10.70;99.90;;;9.89;100.00;100748.22;4235327;28;20050;-82
2022/11/14 07:08:48;;;;;;;7.90;6.45;;;10.70;99.90;;;9.88;100.00;100759.75;4235196;28;20030;-83
2022/11/14 07:10:49;;;;;;;10.68;6.82;;;10.80;99.90;;;9.95;100.00;100766.06;4234157;28;20027;-82
2022/11/14 07:12:50;;;;;;;13.05;7.00;;;10.80;99.90;;;9.94;100.00;100760.97;4235344;28;20035;-82
2022/11/14 07:14:51;;;;;;;11.93;7.50;;;10.90;99.90;;;10.00;100.00;100773.53;4234140;28;20433;-82
2022/11/14 07:16:51;;;;;;;9.95;7.63;;;10.90;99.90;;;10.05;100.00;100775.69;4234139;28;20110;-82
2022/11/14 07:18:52;;;;;;;10.75;6.35;;;10.90;99.90;;;10.06;100.00;100774.72;4234031;28;20020;-82
2022/11/14 07:20:59;;;;;;;10.85;7.40;;;10.90;99.90;;;10.05;100.00;100765.16;4233794;28;20070;-82
2022/11/14 07:23:00;;;;;;;11.95;8.02;;;11.00;99.90;;;10.10;100.00;100771.63;4236037;28;20043;-82
2022/11/14 07:25:01;;;;;;;9.00;6.03;;;11.00;99.90;;;10.07;100.00;100760.53;4238630;28;20028;-81
2022/11/14 07:27:01;;;;;;;8.20;6.40;;;11.00;99.90;;;10.14;100.00;100773.00;4237249;28;20390;-82
2022/11/14 07:29:02;;;;;;;13.10;7.32;;;11.00;99.90;;;10.19;100.00;100769.91;4237674;28;20024;-82
2022/11/14 07:31:12;;;;;;;12.70;7.07;;;11.00;99.90;;;10.20;100.00;100763.66;4238711;28;20026;-82
2022/11/14 07:33:13;;;;;;;10.10;7.00;;;11.10;99.90;;;10.21;100.00;100767.97;4237496;28;20035;-81
2022/11/14 07:35:14;;;;;;;9.75;7.30;;;11.10;99.90;;;10.23;100.00;100774.75;4237123;28;20016;-81
2022/11/14 07:37:15;;;;;;;11.50;7.35;;;11.10;99.90;;;10.23;100.00;100769.47;4254597;27;20111;-81
2022/11/14 07:39:16;;;;;;;17.27;8.18;;;11.10;99.90;;;10.25;100.00;100766.66;4244614;27;20027;-81
2022/11/14 07:41:17;;;;;;;19.77;8.25;;;11.10;99.90;;;10.24;100.00;100755.31;4238638;27;20036;-82
2022/11/14 07:43:18;;;;;;;9.05;5.63;;;11.10;99.90;;;10.28;100.00;100751.38;4237296;28;20028;-81
2022/11/14 07:45:19;;;;;;;7.35;5.95;;;11.20;99.90;;;10.26;100.00;100742.78;4237457;28;20085;-81
2022/11/14 07:47:19;;;;;;;11.27;7.22;;;11.20;99.90;;;10.32;100.00;100758.00;4238211;28;20501;-82
2022/11/14 07:49:20;;;;;;;10.88;7.68;;;11.20;99.90;;;10.29;100.00;100754.84;4238449;28;20031;-82
2022/11/14 07:51:21;;;;;;;12.73;7.03;;;11.20;99.90;;;10.28;100.00;100753.16;4238271;28;20023;-82
2022/11/14 07:53:23;;;;;;;8.70;6.78;;;11.10;99.90;;;10.28;100.00;100747.91;4237055;28;20024;-81
2022/11/14 07:55:24;;;;;;;9.73;6.18;;;11.10;99.90;;;10.29;100.00;100737.22;4236942;28;20051;-81
2022/11/14 07:57:25;;;;;;;8.80;6.20;;;11.20;99.90;;;10.34;100.00;100731.47;4236944;28;20024;-81
2022/11/14 07:59:26;;;;;;;8.02;5.13;;;11.20;99.90;;;10.38;100.00;100722.28;4236955;28;20028;-81
2022/11/14 08:01:26;;;;;;;11.38;7.35;;;11.20;99.90;;;10.32;100.00;100722.88;4238736;28;20036;-81
2022/11/14 08:03:28;;;;;;;10.90;7.85;;;11.20;99.90;;;10.29;100.00;100720.56;4238325;28;20020;-82
2022/11/14 08:05:29;;;;;;;14.85;7.47;;;11.20;99.90;;;10.29;100.00;100731.09;4238126;28;20041;-80
2022/11/14 08:07:30;;;;;;;17.52;9.40;;;11.10;99.90;;;10.25;100.00;100725.31;4237828;28;20408;-80
2022/11/14 08:09:31;;;;;;;10.60;7.15;;;11.10;99.90;;;10.29;100.00;100720.56;4238075;28;20051;-80
2022/11/14 08:11:47;;;;;;;15.75;9.02;;;11.10;99.90;;;10.32;100.00;100720.25;4238019;28;20046;-80
2022/11/14 08:13:47;;;;;;;11.82;6.93;;;11.10;99.90;;;10.33;100.00;100708.75;4238229;28;20084;-80
2022/11/14 08:15:48;;;;;;;8.98;6.68;;;11.20;99.90;;;10.36;100.00;100713.69;4237859;28;20024;-80
2022/11/14 08:17:49;;;;;;;8.85;6.40;;;11.30;99.90;;;10.40;100.00;100715.03;4236728;28;20583;-81
2022/11/14 08:19:50;;;;;;;15.57;8.63;;;11.30;99.90;;;10.44;100.00;100727.75;4236739;28;20044;-80
2022/11/14 08:21:51;;;;;;;12.57;6.90;;;11.30;99.90;;;10.45;100.00;100725.97;4237839;28;20035;-81
2022/11/14 08:23:52;;;;;;;11.88;6.82;;;11.30;99.90;;;10.61;100.00;100744.50;4236440;28;20024;-81